Startpagina
METAR-TAF:

METAR-TAF

Vliegvelden :

Hagåtña, Guam, Verenigde Staten

breedte: 13-29N, lengte: 144-48E, hoogte: 91 m

Actueel weer

Dit bericht is 55 minuten geleden gemaakt, om 00:54 UTC
Wind 13 kt uit het oosten
Temperatuur 31°C
Vochtigheid 66%
Druk 1013 hPa
Zicht: 16.1 km
Weinig wolken op 2600 ft
Verspreide wolken op 3900 ft
Verspreide wolken op 4700 ft

METAR: PGUM 290054Z 08013KT 10SM FEW026 SCT039 SCT047 31/24 A2991 RMK AO2 SLP119 T03110244 $

Tijdstip: 11:49 (01:49 UTC)

Verwachting

Dit bericht is 2 uur en het 25 minuten geleden gemaakt, om 23:24 UTC
Verwachting geldig van 29 om 00 UTC tot 30 om 06 UTC
Wind 11 kt uit het oosten
Zicht: 10 km
Weinig wolken op 2000 ft
Verspreide wolken op 5000 ft
buien in de omgeving

TAF: PGUM 282324Z 2900/3006 08011KT P6SM VCSH FEW020 SCT050

Waarnemingen en weersverwachtingen van meer dan 4000 vliegvelden (METAR en TAF).

De beschikbare stations zijn de gele en rode punten op de kaart.

Ga met uw muis naar het station om de naam te zien.

Klik dan om waarnemingen en weersverwachtingen te zien.

kaart wijzigen: klik op de groene knoppen met een zwart kruis om in te zoomen, op de groene knop met een streepje om uit te zoomen of op de groene pijlen voor aangrenzende kaarten.


METAR-TAF: